Nearby METAR Reports

 

KSJC - San Jose, California, USA
Distance from station: NE 14km
Updated: 24/02/2021 12:43
unable to load KSJC data RC=
unable to load KSJC data RC=
 
KNUQ - Moffett Nas/Mtn, California, USA
Distance from station: N 14km
Updated: 24/02/2021 12:30
Clear
Clear
 Wind from varies
Wind: varies 11 km/h, Gust: 22 km/h
Temperature: 19°C
Dew Point: -4°C
Humidity: 21%
Barometer: 1022 hPa
Clouds: Clear
Visibility: 16 km
2021/02/24 20:30 KNUQ 242030Z AUTO VRB06G12KT 10SM CLR 19/M04 A3018 RMK AO2
 
KPAO - Palo Alto, California, USA
Distance from station: NNW 23km
Updated: 24/02/2021 11:47
Clear
Clear
 Wind from NW
Wind: NW 20 km/h, Gust: 30 km/h
Temperature: 19°C
Dew Point: -4°C
Humidity: 21%
Barometer: 1022.7 hPa
Clouds: Clear
Visibility: 16 km
2021/02/24 19:47 KPAO 241947Z 32011G16KT 10SM SKC 19/M04 A3020
KRHV - San Jose/Reid, California, USA
Distance from station: ENE 19km
Updated: 24/02/2021 11:50
Clear
Clear
 Wind from NNW
Wind: NNW 35 km/h, Gust: 44 km/h
Temperature: 20°C
Dew Point: -9°C
Humidity: 13%
Barometer: 1021.7 hPa
Clouds: Clear
Visibility: 16 km
2021/02/24 19:50 KRHV 241950Z 34019G24KT 10SM SKC 20/M09 A3017
 
KOAK - Oakland, California, USA
Distance from station: NNW 50km
Updated: 24/02/2021 11:53
Clear
Clear
 Wind from WSW
Wind: WSW 11 km/h
Temperature: 18°C
Dew Point: 3°C
Humidity: 37%
Barometer: 1022.7 hPa
Clouds: Clear
Visibility: 16 km
2021/02/24 19:53 KOAK 241953Z 24006KT 10SM CLR 18/03 A3020 RMK AO2 SLP228 T01830033
KSQL - San Carlos Airpo, California, USA
Distance from station: NW 34km
Updated: 24/02/2021 11:58
Clear
Clear
 Wind from W
Wind: W 17 km/h
Temperature: 19°C
Dew Point: -8°C
Humidity: 15%
Barometer: 1023 hPa
Clouds: Clear
Visibility: 16 km
2021/02/24 19:58 KSQL 241958Z 27009KT 10SM SKC 19/M08 A3021
 
KSFO - San Francisco, California, USA
Distance from station: NW 49km
Updated: 24/02/2021 11:56
Clear
Clear
 Wind from NE
Wind: NE 9 km/h
Temperature: 18°C
Dew Point: 3°C
Humidity: 37%
Barometer: 1022.7 hPa
Clouds: Clear
Visibility: 16 km
2021/02/24 19:56 KSFO 241956Z 04005KT 10SM CLR 18/03 A3020 RMK AO2 SLP225 T01780033 CHINO RWY L10
KE16 - San Martin, California, USA
Distance from station: ESE 43km
Updated: 24/02/2021 12:35
Clear
Clear
 Wind from WNW
Wind: WNW 30 km/h, Gust: 35 km/h
Temperature: 20°C
Dew Point: -10°C
Humidity: 12%
Barometer: 1021.3 hPa
Clouds: Clear
Visibility: 16 km
2021/02/24 20:35 KE16 242035Z AUTO 29016G19KT 10SM CLR 20/M10 A3016 RMK AO2
 
KWVI - Watsonville, California, USA
Distance from station: SSE 44km
Updated: 24/02/2021 11:53
Clear
Clear
 Wind from SSW
Wind: SSW 9 km/h
Temperature: 17°C
Dew Point: 6°C
Humidity: 49%
Barometer: 1021.7 hPa
Clouds: Clear
Visibility: 16 km
2021/02/24 19:53 KWVI 241953Z AUTO 21005KT 10SM CLR 17/06 A3017 RMK AO2 SLP216 T01720061
KHAF - Half Moon Bay, California, USA
Distance from station: WNW 50km
Updated: 24/02/2021 12:35
Haze, Clear
Haze, Clear
 Wind from NNW
Wind: NNW 30 km/h
Temperature: 13°C
Dew Point: 8°C
Humidity: 72%
Barometer: 1022.7 hPa
Summary: Haze
Clouds: Clear
Visibility: 6 km
2021/02/24 20:35 KHAF 242035Z AUTO 33016KT 4SM HZ CLR 13/08 A3020 RMK AO2
 
KHWD - Hayward, California, USA
Distance from station: N 44km
Updated: 24/02/2021 11:54
Clear
Clear
 Wind from W
Wind: W 17 km/h
Temperature: 18°C
Dew Point: 2°C
Humidity: 34%
Barometer: 1022.4 hPa
Clouds: Clear
Visibility: 16 km
2021/02/24 19:54 KHWD 241954Z 28009KT 10SM CLR 18/02 A3019 RMK AO2 SLP233 T01830017
KLVK - Livermore, California, USA
Distance from station: NNE 51km
Updated: 24/02/2021 11:53
Clear
Clear
 Wind from NNE
Wind: NNE 17 km/h, Gust: 31 km/h
Temperature: 19°C
Dew Point: -14°C
Humidity: 9%
Barometer: 1022.7 hPa
Clouds: Clear
Visibility: 16 km
2021/02/24 19:53 KLVK 241953Z 02009G17KT 10SM CLR 19/M14 A3020 RMK AO2 SLP226 T01941144